Time;durP1;ratioP1;P1;durP2;ratioP2;P2;SDS_P1;SDS_P2;PMS_P1;PMS_P2;Temp;Humidity;BMP_temperature;BMP_pressure;BME280_temperature;BME280_humidity;BME280_pressure;Samples;Min_cycle;Max_cycle;Signal;HPM_P1;HPM_P2
2022/01/13 10:31:06;;;;;;;38.83;22.00;;;6.00;99.90;;;;;;5440760;23;20049;-78
2022/01/13 10:33:36;;;;;;;45.70;22.77;;;6.00;99.90;;;;;;4930666;29;38396;-78
2022/01/13 10:36:08;;;;;;;62.97;23.93;;;6.10;99.90;;;;;;4931257;29;36234;-80
2022/01/13 10:38:56;;;;;;;54.83;24.67;;;6.10;99.90;;;;;;4919041;23;39711;-77
2022/01/13 10:44:18;;;;;;;54.03;24.30;;;6.20;99.90;;;;;;4897065;29;39369;-78
2022/01/13 10:47:01;;;;;;;43.53;21.27;;;6.30;99.90;;;;;;4896795;29;37562;-78
2022/01/13 10:49:35;;;;;;;39.23;21.47;;;6.30;99.90;;;;;;4894308;29;39044;-78
2022/01/13 10:52:24;;;;;;;41.77;20.50;;;6.30;99.90;;;;;;4891851;29;37784;-78
2022/01/13 10:55:01;;;;;;;52.57;23.60;;;6.20;99.90;;;;;;4904277;29;39405;-78
2022/01/13 10:57:28;;;;;;;41.70;21.20;;;6.30;99.90;;;;;;4887714;29;38020;-78
2022/01/13 10:59:54;;;;;;;46.17;21.40;;;6.30;99.90;;;;;;4881243;29;42221;-78
2022/01/13 11:02:24;;;;;;;45.43;22.50;;;6.30;99.90;;;;;;4883361;29;38470;-77
2022/01/13 11:04:51;;;;;;;48.13;23.13;;;6.30;99.90;;;;;;4884719;29;38336;-78
2022/01/13 11:07:23;;;;;;;39.43;21.80;;;6.30;99.90;;;;;;4883300;29;37146;-78
2022/01/13 11:09:59;;;;;;;47.30;21.87;;;6.40;99.90;;;;;;4888358;29;40605;-77
2022/01/13 11:12:38;;;;;;;46.37;21.57;;;6.50;99.90;;;;;;4887183;29;38211;-76
2022/01/13 11:15:08;;;;;;;36.90;19.77;;;6.40;99.90;;;;;;4898324;28;38480;-76
2022/01/13 11:17:38;;;;;;;39.57;20.50;;;6.50;99.90;;;;;;4885527;29;48409;-76
2022/01/13 11:20:09;;;;;;;36.23;20.53;;;6.50;99.90;;;;;;4889484;29;37875;-77
2022/01/13 11:22:42;;;;;;;41.33;22.20;;;6.60;99.90;;;;;;4884624;29;39482;-76
2022/01/13 11:25:10;;;;;;;41.63;21.73;;;6.60;99.90;;;;;;4902084;28;39789;-77
2022/01/13 11:27:38;;;;;;;38.70;21.07;;;6.50;99.90;;;;;;4893000;29;38513;-77
2022/01/13 11:30:12;;;;;;;42.87;22.47;;;6.50;99.90;;;;;;4889657;29;40717;-76
2022/01/13 11:32:42;;;;;;;43.70;22.57;;;6.40;99.90;;;;;;4902532;28;48460;-76
2022/01/13 11:35:14;;;;;;;50.70;22.27;;;6.60;99.90;;;;;;4887941;29;38024;-76
2022/01/13 11:37:42;;;;;;;48.70;22.92;;;6.60;99.90;;;;;;4895829;29;39304;-76
2022/01/13 11:40:28;;;;;;;41.73;21.07;;;6.60;99.90;;;;;;4882195;29;38874;-77
2022/01/13 11:42:55;;;;;;;43.23;22.83;;;6.70;99.90;;;;;;4900153;29;37589;-77
2022/01/13 11:45:22;;;;;;;44.27;22.23;;;6.70;99.90;;;;;;4893091;29;38470;-77
2022/01/13 11:48:09;;;;;;;51.73;24.20;;;6.70;99.90;;;;;;4890235;29;37265;-78
2022/01/13 11:50:43;;;;;;;40.37;21.33;;;6.80;99.90;;;;;;4891025;29;49954;-77
2022/01/13 11:53:31;;;;;;;43.97;22.50;;;6.80;99.90;;;;;;4901519;29;38923;-77
2022/01/13 11:56:03;;;;;;;46.10;23.67;;;6.80;99.90;;;;;;4890831;29;38587;-78
2022/01/13 11:58:38;;;;;;;40.17;21.23;;;6.90;99.90;;;;;;4897421;29;48997;-78
2022/01/13 12:01:35;;;;;;;47.20;21.77;;;6.90;99.90;;;;;;4890389;29;40748;-78
2022/01/13 12:04:08;;;;;;;45.67;22.23;;;7.00;99.90;;;;;;4891892;29;39038;-78
2022/01/13 12:06:42;;;;;;;41.47;21.45;;;7.10;99.90;;;;;;4899936;29;47452;-78
2022/01/13 12:09:21;;;;;;;49.80;22.13;;;7.10;99.90;;;;;;4891068;29;38136;-78
2022/01/13 12:11:50;;;;;;;44.27;21.83;;;7.10;99.90;;;;;;4893517;28;38851;-77
2022/01/13 12:14:28;;;;;;;41.93;22.77;;;7.10;99.90;;;;;;4891665;29;38757;-77
2022/01/13 12:16:56;;;;;;;53.60;22.23;;;7.10;99.90;;;;;;4893000;28;38352;-77
2022/01/13 12:19:31;;;;;;;47.67;21.80;;;7.10;99.90;;;;;;4890777;29;38548;-77
2022/01/13 12:22:04;;;;;;;51.67;24.37;;;7.20;99.90;;;;;;4887568;29;37918;-77
2022/01/13 12:24:57;;;;;;;50.43;22.63;;;7.30;99.90;;;;;;4893200;29;48919;-77
2022/01/13 12:27:26;;;;;;;56.38;24.38;;;7.30;99.90;;;;;;4889063;28;38003;-77
2022/01/13 12:30:12;;;;;;;47.20;23.80;;;7.20;99.90;;;;;;4891551;29;37159;-77
2022/01/13 12:32:49;;;;;;;45.37;22.43;;;7.40;99.90;;;;;;4888622;29;48793;-77
2022/01/13 12:35:30;;;;;;;46.73;22.60;;;7.30;99.90;;;;;;4897154;28;39764;-77
2022/01/13 12:38:02;;;;;;;50.83;22.23;;;7.40;99.90;;;;;;4883547;29;38608;-77
2022/01/13 12:40:45;;;;;;;65.22;25.40;;;7.30;99.90;;;;;;4897802;29;47504;-77
2022/01/13 12:43:21;;;;;;;;;;;7.20;99.90;;;;;;4902483;28;38162;-77
2022/01/13 12:45:48;;;;;;;44.27;22.63;;;7.20;99.90;;;;;;4895561;29;39251;-77
2022/01/13 12:48:15;;;;;;;46.10;21.83;;;7.10;99.90;;;;;;4884427;29;37915;-77
2022/01/13 12:50:44;;;;;;;48.30;23.80;;;7.20;99.90;;;;;;4888467;28;38439;-76
2022/01/13 12:53:23;;;;;;;54.17;23.90;;;7.20;99.90;;;;;;4885131;29;38317;-77
2022/01/13 12:55:53;;;;;;;46.43;22.20;;;7.30;99.90;;;;;;4886932;28;37469;-77
2022/01/13 12:58:21;;;;;;;44.10;21.97;;;7.30;99.90;;;;;;4885061;29;38103;-77
2022/01/13 13:00:47;;;;;;;39.63;20.73;;;7.30;99.90;;;;;;4883415;29;37138;-77
2022/01/13 13:03:14;;;;;;;59.73;24.00;;;7.40;99.90;;;;;;4878470;29;38770;-77
2022/01/13 13:05:48;;;;;;;42.33;22.10;;;7.30;99.90;;;;;;4886646;29;38012;-77
2022/01/13 13:08:22;;;;;;;54.87;22.53;;;7.30;99.90;;;;;;4887982;29;38325;-77
2022/01/13 13:11:00;;;;;;;46.40;22.13;;;7.30;99.90;;;;;;4880927;29;36467;-77
2022/01/13 13:13:31;;;;;;;57.83;24.63;;;7.20;99.90;;;;;;4880600;29;37643;-77
2022/01/13 13:16:00;;;;;;;50.13;21.93;;;7.30;99.90;;;;;;4886981;29;38672;-77
2022/01/13 13:18:29;;;;;;;37.73;19.93;;;7.40;99.90;;;;;;4886120;29;41464;-77
2022/01/13 13:20:57;;;;;;;63.53;22.57;;;7.40;99.90;;;;;;4885794;29;36321;-77
2022/01/13 13:23:26;;;;;;;47.77;20.00;;;7.30;99.90;;;;;;4883257;29;39328;-77
2022/01/13 13:25:55;;;;;;;48.93;20.40;;;7.30;99.90;;;;;;4899661;28;38329;-77
2022/01/13 13:28:36;;;;;;;69.80;24.10;;;7.20;99.90;;;;;;4880652;29;37179;-77
2022/01/13 13:31:05;;;;;;;48.50;21.73;;;7.20;99.90;;;;;;4877104;28;37676;-77
2022/01/13 13:33:37;;;;;;;36.73;20.53;;;7.30;99.90;;;;;;4892494;29;38916;-78
2022/01/13 13:36:06;;;;;;;116.00;25.77;;;7.30;99.90;;;;;;4881483;29;36826;-77
2022/01/13 13:38:48;;;;;;;66.53;24.00;;;7.20;99.90;;;;;;4884346;29;39673;-78
2022/01/13 13:41:18;;;;;;;66.37;24.70;;;7.20;99.90;;;;;;4878832;29;37721;-78
2022/01/13 13:43:45;;;;;;;47.77;22.50;;;7.20;99.90;;;;;;4883171;29;39481;-78
2022/01/13 13:46:13;;;;;;;71.27;24.23;;;7.20;99.90;;;;;;4875080;28;38092;-77
2022/01/13 13:48:45;;;;;;;47.23;20.33;;;7.30;99.90;;;;;;4873706;29;39353;-77
2022/01/13 13:51:28;;;;;;;49.77;21.20;;;7.20;99.90;;;;;;4880683;29;37509;-77
2022/01/13 13:54:11;;;;;;;72.87;23.23;;;7.00;99.90;;;;;;4883916;29;41116;-77
2022/01/13 13:56:53;;;;;;;55.30;22.45;;;7.10;99.90;;;;;;4884043;28;49060;-77
2022/01/13 13:59:34;;;;;;;79.95;25.33;;;7.10;99.90;;;;;;4888224;29;38801;-77
2022/01/13 14:02:29;;;;;;;50.30;22.33;;;7.10;99.90;;;;;;4887277;29;37515;-77
2022/01/13 14:05:00;;;;;;;58.73;24.57;;;7.00;99.90;;;;;;4887066;29;47934;-77
2022/01/13 14:07:44;;;;;;;57.20;25.23;;;7.00;99.90;;;;;;4887378;29;38494;-77
2022/01/13 14:10:18;;;;;;;70.63;26.60;;;7.00;99.90;;;;;;4901234;29;36659;-77
2022/01/13 14:12:49;;;;;;;55.13;24.23;;;7.00;99.90;;;;;;4898427;29;37886;-77
2022/01/13 14:15:29;;;;;;;52.03;25.43;;;7.00;99.90;;;;;;4882280;29;37906;-77
2022/01/13 14:17:58;;;;;;;45.73;23.63;;;7.00;99.90;;;;;;4884610;29;40651;-77
2022/01/13 14:20:28;;;;;;;56.57;27.53;;;7.10;99.90;;;;;;4898101;28;41559;-77
2022/01/13 14:23:01;;;;;;;47.80;25.00;;;7.10;99.90;;;;;;4882401;29;37224;-77
2022/01/13 14:25:39;;;;;;;67.10;27.77;;;7.00;99.90;;;;;;4899919;29;46276;-77
2022/01/13 14:28:11;;;;;;;55.90;27.60;;;7.00;99.90;;;;;;4888596;28;37475;-77
2022/01/13 14:30:40;;;;;;;85.43;31.20;;;7.00;99.90;;;;;;4897272;29;37311;-77
2022/01/13 14:33:26;;;;;;;83.03;32.33;;;6.90;99.90;;;;;;4888823;28;38478;-77
2022/01/13 14:36:19;;;;;;;57.77;27.33;;;6.90;99.90;;;;;;4892034;29;39082;-77
2022/01/13 14:38:57;;;;;;;80.50;29.40;;;6.90;99.90;;;;;;4896742;29;47509;-78
2022/01/13 14:41:27;;;;;;;78.63;32.10;;;6.90;99.90;;;;;;4884835;29;38782;-77
2022/01/13 14:44:19;;;;;;;64.43;27.97;;;7.00;99.90;;;;;;4886433;29;38072;-77
2022/01/13 14:47:05;;;;;;;67.63;29.70;;;7.00;99.90;;;;;;4883960;29;48449;-77
2022/01/13 14:49:35;;;;;;;84.97;30.30;;;7.00;99.90;;;;;;4886560;29;48215;-77
2022/01/13 14:52:04;;;;;;;78.50;30.00;;;6.90;99.90;;;;;;4896770;29;37121;-78
2022/01/13 14:54:32;;;;;;;71.57;31.60;;;6.90;99.90;;;;;;4875822;29;45623;-77
2022/01/13 14:56:59;;;;;;;84.37;32.03;;;6.90;99.90;;;;;;4882259;29;36676;-77
2022/01/13 14:59:25;;;;;;;46.27;25.67;;;6.90;99.90;;;;;;4885798;29;37829;-77
2022/01/13 15:01:51;;;;;;;52.10;28.70;;;6.80;99.90;;;;;;4880747;29;39084;-77
2022/01/13 15:04:18;;;;;;;52.20;28.63;;;6.70;99.90;;;;;;4875036;29;38847;-78
2022/01/13 15:06:44;;;;;;;83.20;31.40;;;6.70;99.90;;;;;;4884020;29;38670;-78
2022/01/13 15:09:11;;;;;;;82.17;31.73;;;6.80;99.90;;;;;;4884128;29;39622;-78
2022/01/13 15:11:37;;;;;;;72.37;33.07;;;6.80;99.90;;;;;;4883286;29;39756;-78
2022/01/13 15:14:04;;;;;;;52.80;28.87;;;6.80;99.90;;;;;;4879056;29;38347;-77
2022/01/13 15:16:30;;;;;;;64.13;28.37;;;6.80;99.90;;;;;;4895641;28;40261;-77
2022/01/13 15:19:03;;;;;;;54.07;28.63;;;6.80;99.90;;;;;;4882612;29;38757;-78
2022/01/13 15:21:31;;;;;;;82.23;30.50;;;6.80;99.90;;;;;;4880247;28;47436;-76
2022/01/13 15:23:57;;;;;;;49.33;28.50;;;6.70;99.90;;;;;;4881353;29;36276;-75
2022/01/13 15:26:24;;;;;;;51.40;30.07;;;6.70;99.90;;;;;;4884550;28;39316;-76
2022/01/13 15:28:52;;;;;;;79.90;33.50;;;6.80;99.90;;;;;;4886334;29;38608;-75
2022/01/13 15:31:19;;;;;;;79.00;32.33;;;6.80;99.90;;;;;;4888046;29;36831;-76
2022/01/13 15:33:45;;;;;;;53.50;29.50;;;6.70;99.90;;;;;;4882305;29;38203;-76
2022/01/13 15:36:11;;;;;;;51.70;28.87;;;6.70;99.90;;;;;;4878334;29;40683;-76
2022/01/13 15:38:38;;;;;;;73.90;31.47;;;6.70;99.90;;;;;;4880662;29;39630;-75
2022/01/13 15:41:06;;;;;;;54.00;30.17;;;6.70;99.90;;;;;;4879167;29;38604;-75
2022/01/13 15:43:32;;;;;;;68.83;29.23;;;6.70;99.90;;;;;;4888892;29;39156;-75
2022/01/13 15:45:59;;;;;;;96.40;33.63;;;6.70;99.90;;;;;;4895079;29;37668;-76
2022/01/13 15:48:25;;;;;;;133.10;35.47;;;6.70;99.90;;;;;;4878868;29;39609;-76
2022/01/13 15:50:51;;;;;;;93.80;30.63;;;6.60;99.90;;;;;;4880141;29;38936;-76
2022/01/13 15:53:17;;;;;;;53.47;27.40;;;6.60;99.90;;;;;;4875409;29;38528;-75
2022/01/13 15:55:43;;;;;;;41.07;24.87;;;6.60;99.90;;;;;;4878320;29;39490;-76
2022/01/13 15:58:09;;;;;;;51.57;27.80;;;6.60;99.90;;;;;;4882590;29;38934;-75
2022/01/13 16:00:38;;;;;;;74.80;29.53;;;6.60;99.90;;;;;;4876083;29;38006;-75
2022/01/13 16:03:05;;;;;;;76.33;30.33;;;6.60;99.90;;;;;;4878460;29;38347;-76
2022/01/13 16:05:31;;;;;;;56.80;26.87;;;6.60;99.90;;;;;;4880613;29;39986;-76
2022/01/13 16:07:57;;;;;;;56.83;26.30;;;6.60;99.90;;;;;;4879258;29;39375;-76
2022/01/13 16:10:23;;;;;;;42.90;22.23;;;6.50;99.90;;;;;;4878047;29;38440;-75
2022/01/13 16:12:49;;;;;;;46.50;22.67;;;6.50;99.90;;;;;;4879222;28;37099;-75
2022/01/13 16:15:18;;;;;;;53.90;24.10;;;6.50;99.90;;;;;;4881914;29;39875;-76
2022/01/13 16:17:46;;;;;;;49.40;23.97;;;6.40;99.90;;;;;;4880243;29;39625;-76
2022/01/13 16:20:14;;;;;;;106.63;29.23;;;6.50;99.90;;;;;;4881787;28;38719;-76
2022/01/13 16:22:40;;;;;;;112.00;28.80;;;6.50;99.90;;;;;;4883459;29;37694;-76
2022/01/13 16:25:07;;;;;;;41.03;22.57;;;6.50;99.90;;;;;;4879841;28;39553;-77
2022/01/13 16:27:33;;;;;;;41.83;23.20;;;6.50;99.90;;;;;;4886311;29;39985;-77
2022/01/13 16:30:07;;;;;;;46.10;21.00;;;6.50;99.90;;;;;;4899449;29;38885;-77
2022/01/13 16:32:39;;;;;;;56.43;23.27;;;6.50;99.90;;;;;;4882950;29;47097;-76
2022/01/13 16:35:16;;;;;;;53.27;22.13;;;6.50;99.90;;;;;;4885927;29;38709;-76
2022/01/13 16:37:44;;;;;;;70.93;23.83;;;6.50;99.90;;;;;;4890526;28;38619;-77
2022/01/13 16:40:16;;;;;;;38.40;20.40;;;6.50;99.90;;;;;;4902103;29;37993;-77
2022/01/13 16:42:45;;;;;;;45.08;23.63;;;6.50;99.90;;;;;;4879818;29;37575;-76
2022/01/13 16:45:16;;;;;;;39.67;20.30;;;6.50;99.90;;;;;;4888115;29;37566;-76
2022/01/13 16:47:43;;;;;;;41.50;20.88;;;6.50;99.90;;;;;;4900622;29;39352;-77
2022/01/13 16:50:10;;;;;;;59.63;22.00;;;6.50;99.90;;;;;;4882269;29;38214;-75
2022/01/13 16:52:37;;;;;;;46.10;20.63;;;6.60;99.90;;;;;;4887193;29;38166;-76
2022/01/13 16:55:04;;;;;;;38.87;19.17;;;6.60;99.90;;;;;;4890160;29;38823;-77
2022/01/13 16:57:31;;;;;;;38.53;18.37;;;6.60;99.90;;;;;;4896800;29;47287;-77
2022/01/13 16:59:58;;;;;;;53.77;20.90;;;6.60;99.90;;;;;;4890280;29;37517;-77
2022/01/13 17:02:26;;;;;;;57.10;20.83;;;6.50;99.90;;;;;;4885734;29;38847;-77
2022/01/13 17:04:53;;;;;;;37.13;17.83;;;6.50;99.90;;;;;;4889367;29;38884;-77
2022/01/13 17:07:19;;;;;;;69.67;20.30;;;6.50;99.90;;;;;;4887793;28;38762;-76
2022/01/13 17:09:45;;;;;;;36.30;17.07;;;6.60;99.90;;;;;;4889964;29;38550;-77
2022/01/13 17:12:11;;;;;;;35.00;18.87;;;6.60;99.90;;;;;;4892500;29;37364;-77
2022/01/13 17:14:37;;;;;;;66.60;21.53;;;6.60;99.90;;;;;;4888997;29;40411;-77
2022/01/13 17:17:06;;;;;;;33.90;16.13;;;6.60;99.90;;;;;;4887722;28;39923;-76
2022/01/13 17:19:33;;;;;;;40.80;16.77;;;6.60;99.90;;;;;;4900493;29;38790;-77
2022/01/13 17:22:00;;;;;;;52.00;17.77;;;6.60;99.90;;;;;;4878619;29;38791;-77
2022/01/13 17:24:26;;;;;;;42.93;16.50;;;6.60;99.90;;;;;;4883883;29;39593;-77
2022/01/13 17:26:52;;;;;;;49.70;18.87;;;6.60;99.90;;;;;;4881245;29;36920;-77
2022/01/13 17:29:19;;;;;;;120.07;22.57;;;6.60;99.90;;;;;;4883077;29;38634;-77
2022/01/13 17:31:45;;;;;;;59.97;18.60;;;6.60;99.90;;;;;;4880432;29;36354;-77
2022/01/13 17:34:12;;;;;;;73.73;19.90;;;6.60;99.90;;;;;;4884708;29;39646;-77
2022/01/13 17:36:38;;;;;;;39.53;18.60;;;6.60;99.90;;;;;;4886522;29;38154;-77
2022/01/13 17:39:05;;;;;;;70.53;20.73;;;6.60;99.90;;;;;;4888597;29;38535;-77
2022/01/13 17:41:32;;;;;;;32.63;16.73;;;6.60;99.90;;;;;;4891467;29;37442;-77
2022/01/13 17:44:01;;;;;;;49.90;18.63;;;6.60;99.90;;;;;;4892030;29;38571;-77
2022/01/13 17:46:28;;;;;;;37.77;18.87;;;6.60;99.90;;;;;;4889417;28;39742;-77
2022/01/13 17:48:56;;;;;;;71.87;20.87;;;6.60;99.90;;;;;;4885667;29;38181;-77
2022/01/13 17:51:23;;;;;;;39.57;17.53;;;6.60;99.90;;;;;;4886595;29;37068;-76
2022/01/13 17:53:51;;;;;;;59.87;19.43;;;6.60;99.90;;;;;;4890082;29;37663;-76
2022/01/13 17:56:17;;;;;;;72.13;20.27;;;6.60;99.90;;;;;;4894159;29;39721;-78
2022/01/13 17:58:43;;;;;;;43.27;17.30;;;6.60;99.90;;;;;;4903712;29;37926;-76
2022/01/13 18:01:10;;;;;;;29.07;15.13;;;6.60;99.90;;;;;;4887776;29;35246;-77
2022/01/13 18:03:37;;;;;;;41.93;17.57;;;6.50;99.90;;;;;;4885791;29;37951;-77
2022/01/13 18:06:04;;;;;;;29.83;16.10;;;6.50;99.90;;;;;;4903365;29;39849;-77
2022/01/13 18:08:30;;;;;;;83.63;20.63;;;6.50;99.90;;;;;;4887891;29;39490;-77
2022/01/13 18:10:56;;;;;;;41.43;15.73;;;6.50;99.90;;;;;;4887992;29;37476;-76
2022/01/13 18:13:24;;;;;;;52.00;17.70;;;6.40;99.90;;;;;;4885482;29;40087;-77
2022/01/13 18:15:51;;;;;;;73.97;19.67;;;6.40;99.90;;;;;;4891016;29;39626;-77
2022/01/13 18:18:21;;;;;;;44.60;17.40;;;6.40;99.90;;;;;;4887215;29;39040;-77
2022/01/13 18:20:48;;;;;;;42.93;16.47;;;6.40;99.90;;;;;;4896268;28;38117;-76
2022/01/13 18:23:14;;;;;;;61.60;18.87;;;6.40;99.90;;;;;;4901768;29;37201;-76
2022/01/13 18:25:41;;;;;;;87.33;20.30;;;6.40;99.90;;;;;;4883738;29;38180;-77
2022/01/13 18:28:10;;;;;;;65.63;19.40;;;6.30;99.90;;;;;;4887075;29;38280;-77
2022/01/13 18:30:36;;;;;;;67.20;19.37;;;6.30;99.90;;;;;;4888245;28;38134;-76
2022/01/13 18:33:03;;;;;;;49.30;16.87;;;6.40;99.90;;;;;;4893080;29;37798;-76
2022/01/13 18:35:29;;;;;;;46.67;17.23;;;6.40;99.90;;;;;;4885657;29;40261;-75
2022/01/13 18:37:55;;;;;;;66.73;18.37;;;6.40;99.90;;;;;;4889651;28;38416;-76
2022/01/13 18:40:22;;;;;;;35.90;16.43;;;6.30;99.90;;;;;;4892839;29;38219;-76
2022/01/13 18:42:57;;;;;;;31.07;16.00;;;6.30;99.90;;;;;;4884121;29;39892;-76
2022/01/13 18:45:25;;;;;;;58.50;15.20;;;6.30;99.90;;;;;;4886547;29;38301;-76
2022/01/13 18:48:05;;;;;;;61.63;18.37;;;6.30;99.90;;;;;;4886941;29;38472;-76
2022/01/13 18:50:41;;;;;;;32.40;15.37;;;6.30;99.90;;;;;;4886940;29;45476;-76
2022/01/13 18:53:10;;;;;;;36.47;15.30;;;6.30;99.90;;;;;;4887007;29;39700;-76
2022/01/13 18:55:37;;;;;;;33.93;15.43;;;6.30;99.90;;;;;;4904722;29;39141;-76
2022/01/13 18:58:04;;;;;;;33.90;15.37;;;6.40;99.90;;;;;;4886714;29;38629;-76
2022/01/13 19:00:31;;;;;;;43.27;16.53;;;6.30;99.90;;;;;;4885401;29;36312;-77
2022/01/13 19:02:57;;;;;;;25.07;14.40;;;6.30;99.90;;;;;;4900364;29;39697;-76
2022/01/13 19:05:23;;;;;;;35.73;16.83;;;6.30;99.90;;;;;;4885746;29;38615;-76
2022/01/13 19:07:49;;;;;;;51.83;16.97;;;6.30;99.90;;;;;;4888783;29;38357;-76
2022/01/13 19:10:16;;;;;;;54.40;17.73;;;6.30;99.90;;;;;;4887139;29;37791;-76
2022/01/13 19:12:44;;;;;;;42.40;17.37;;;6.30;99.90;;;;;;4891080;29;37080;-77
2022/01/13 19:15:13;;;;;;;29.83;17.30;;;6.20;99.90;;;;;;4889511;29;37694;-77
2022/01/13 19:20:14;;;;;;;59.30;19.40;;;6.20;99.90;;;;;;4891643;29;38399;-77
2022/01/13 19:22:43;;;;;;;27.63;16.02;;;6.20;99.90;;;;;;4892175;29;37836;-77
2022/01/13 19:25:11;;;;;;;40.93;16.93;;;6.20;99.90;;;;;;4890543;28;39168;-77
2022/01/13 19:27:39;;;;;;;48.47;18.50;;;6.20;99.90;;;;;;4890860;29;39665;-77
2022/01/13 19:30:14;;;;;;;49.93;18.57;;;6.10;99.90;;;;;;4904512;29;36396;-77
2022/01/13 19:32:41;;;;;;;81.27;21.30;;;6.10;99.90;;;;;;4884037;29;48718;-77
2022/01/13 19:35:08;;;;;;;32.87;16.30;;;6.00;99.90;;;;;;4889227;29;39818;-77
2022/01/13 19:37:34;;;;;;;98.90;22.97;;;6.00;99.90;;;;;;4890999;29;39061;-77
2022/01/13 19:40:03;;;;;;;33.03;15.87;;;6.10;99.90;;;;;;4889543;29;37515;-77
2022/01/13 19:42:29;;;;;;;45.23;15.80;;;6.00;99.90;;;;;;4890449;29;48976;-76
2022/01/13 19:44:55;;;;;;;28.10;14.70;;;5.90;99.90;;;;;;4885172;29;40367;-76
2022/01/13 19:47:21;;;;;;;59.53;16.87;;;5.90;99.90;;;;;;4888741;29;40616;-77
2022/01/13 19:49:47;;;;;;;44.37;16.57;;;5.90;99.90;;;;;;4887437;29;38818;-77
2022/01/13 19:52:13;;;;;;;54.97;17.83;;;5.90;99.90;;;;;;4902108;28;40471;-77
2022/01/13 19:54:40;;;;;;;35.57;14.90;;;5.90;99.90;;;;;;4891537;29;39378;-78
2022/01/13 19:57:06;;;;;;;78.37;18.97;;;5.90;99.90;;;;;;4891000;29;40267;-76
2022/01/13 19:59:32;;;;;;;28.47;15.47;;;5.90;99.90;;;;;;4909710;29;37562;-77
2022/01/13 20:01:58;;;;;;;63.33;18.10;;;5.80;99.90;;;;;;4892296;28;38664;-76
2022/01/13 20:04:24;;;;;;;29.40;13.80;;;5.80;99.90;;;;;;4891268;29;39116;-77
2022/01/13 20:06:50;;;;;;;39.83;14.97;;;5.80;99.90;;;;;;4890580;29;39693;-77
2022/01/13 20:09:17;;;;;;;100.83;18.13;;;5.80;99.90;;;;;;4895242;29;37535;-76
2022/01/13 20:11:43;;;;;;;82.37;15.70;;;5.80;99.90;;;;;;4893421;29;38843;-77
2022/01/13 20:14:10;;;;;;;35.53;14.20;;;5.70;99.90;;;;;;4884714;29;39327;-77
2022/01/13 20:16:41;;;;;;;31.07;14.40;;;5.70;99.90;;;;;;4892016;29;38487;-77
2022/01/13 20:19:08;;;;;;;27.50;14.57;;;5.70;99.90;;;;;;4891822;29;38264;-76
2022/01/13 20:21:35;;;;;;;33.43;14.27;;;5.70;99.90;;;;;;4888203;29;37636;-77
2022/01/13 20:24:04;;;;;;;42.90;15.53;;;5.70;99.90;;;;;;4893912;29;39956;-77
2022/01/13 20:26:35;;;;;;;71.93;19.13;;;5.80;99.90;;;;;;4892898;29;48682;-77
2022/01/13 20:29:03;;;;;;;26.13;14.23;;;5.80;99.90;;;;;;4891383;29;38264;-77
2022/01/13 20:31:29;;;;;;;41.00;17.07;;;5.80;99.90;;;;;;4889446;28;36908;-77
2022/01/13 20:33:57;;;;;;;55.97;16.83;;;5.80;99.90;;;;;;4905139;29;40414;-77
2022/01/13 20:36:23;;;;;;;65.10;17.10;;;5.70;99.90;;;;;;4888584;29;40317;-77
2022/01/13 20:38:50;;;;;;;108.47;19.97;;;5.70;99.90;;;;;;4901514;29;38998;-76
2022/01/13 20:41:17;;;;;;;32.50;16.07;;;5.70;99.90;;;;;;4886738;29;38963;-77
2022/01/13 20:43:43;;;;;;;42.73;15.57;;;5.70;99.90;;;;;;4891893;29;38746;-77
2022/01/13 20:46:10;;;;;;;30.40;14.70;;;5.70;99.90;;;;;;4879526;29;38938;-77
2022/01/13 20:48:37;;;;;;;47.13;16.43;;;5.60;99.90;;;;;;4885300;29;38390;-77
2022/01/13 20:51:03;;;;;;;24.47;14.67;;;5.60;99.90;;;;;;4895944;29;39939;-77
2022/01/13 20:53:30;;;;;;;29.40;15.03;;;5.70;99.90;;;;;;4900747;29;38021;-77
2022/01/13 20:55:56;;;;;;;29.00;15.87;;;5.60;99.90;;;;;;4903733;29;39507;-77
2022/01/13 20:58:22;;;;;;;66.07;20.13;;;5.60;99.90;;;;;;4903797;29;38039;-77
2022/01/13 21:00:49;;;;;;;40.67;17.50;;;5.60;99.90;;;;;;4903428;29;37125;-77
2022/01/13 21:03:17;;;;;;;49.67;18.97;;;5.60;99.90;;;;;;4905266;29;38616;-77
2022/01/13 21:05:43;;;;;;;28.53;15.33;;;5.60;99.90;;;;;;4905786;29;38453;-77
2022/01/13 21:08:13;;;;;;;33.37;17.13;;;5.60;99.90;;;;;;4915550;29;37753;-77
2022/01/13 21:10:41;;;;;;;45.80;17.63;;;5.60;99.90;;;;;;4899706;29;39511;-77
2022/01/13 21:13:10;;;;;;;55.87;20.00;;;5.60;99.90;;;;;;4906836;29;38987;-77
2022/01/13 21:15:36;;;;;;;39.07;19.27;;;5.60;99.90;;;;;;4903974;29;39048;-77
2022/01/13 21:18:03;;;;;;;66.87;21.53;;;5.60;99.90;;;;;;4904233;29;37772;-77
2022/01/13 21:20:29;;;;;;;42.43;19.27;;;5.60;99.90;;;;;;4904807;29;37744;-77
2022/01/13 21:22:55;;;;;;;39.03;18.57;;;5.60;99.90;;;;;;4902974;29;38122;-77
2022/01/13 21:25:22;;;;;;;27.63;17.33;;;5.60;99.90;;;;;;4902375;28;38833;-77
2022/01/13 21:27:48;;;;;;;33.23;19.00;;;5.60;99.90;;;;;;4898293;29;37579;-77
2022/01/13 21:30:18;;;;;;;30.27;17.20;;;5.60;99.90;;;;;;4900973;29;39658;-77
2022/01/13 21:32:46;;;;;;;45.97;18.13;;;5.60;99.90;;;;;;4901887;29;37840;-77
2022/01/13 21:35:15;;;;;;;42.17;17.27;;;5.60;99.90;;;;;;4901121;29;39525;-77
2022/01/13 21:37:42;;;;;;;29.30;16.93;;;5.50;99.90;;;;;;4900265;29;36071;-77
2022/01/13 21:40:12;;;;;;;78.40;21.37;;;5.50;99.90;;;;;;4913089;29;39511;-77
2022/01/13 21:42:38;;;;;;;32.07;18.10;;;5.50;99.90;;;;;;4907430;29;38541;-77
2022/01/13 21:45:05;;;;;;;38.83;18.60;;;5.50;99.90;;;;;;4903265;29;38072;-77
2022/01/13 21:47:31;;;;;;;27.97;17.10;;;5.50;99.90;;;;;;4902986;29;36391;-77
2022/01/13 21:49:57;;;;;;;40.90;19.07;;;5.40;99.90;;;;;;4898158;29;38915;-78
2022/01/13 21:52:23;;;;;;;39.90;19.33;;;5.50;99.90;;;;;;4897828;29;41233;-77
2022/01/13 21:54:51;;;;;;;32.53;15.47;;;5.50;99.90;;;;;;4904341;29;41134;-77
2022/01/13 21:57:20;;;;;;;29.13;16.00;;;5.50;99.90;;;;;;4901566;29;37714;-77
2022/01/13 21:59:47;;;;;;;70.70;19.63;;;5.50;99.90;;;;;;4900479;29;39269;-77
2022/01/13 22:02:14;;;;;;;62.77;20.00;;;5.50;99.90;;;;;;4897612;29;37568;-77
2022/01/13 22:04:44;;;;;;;36.57;16.83;;;5.50;99.90;;;;;;4897711;29;37765;-77
2022/01/13 22:07:11;;;;;;;55.70;19.23;;;5.50;99.90;;;;;;4899862;29;37606;-75
2022/01/13 22:09:40;;;;;;;33.80;17.80;;;5.50;99.90;;;;;;4919895;29;37737;-77
2022/01/13 22:12:10;;;;;;;29.60;16.90;;;5.50;99.90;;;;;;4900995;29;39104;-77
2022/01/13 22:14:37;;;;;;;70.63;19.87;;;5.50;99.90;;;;;;4906043;29;37023;-75
2022/01/13 22:17:04;;;;;;;28.10;16.77;;;5.50;99.90;;;;;;4899615;29;37293;-76
2022/01/13 22:19:30;;;;;;;32.80;17.67;;;5.50;99.90;;;;;;4904627;29;40292;-76
2022/01/13 22:21:59;;;;;;;41.27;19.13;;;5.50;99.90;;;;;;4903949;28;39038;-78
2022/01/13 22:24:26;;;;;;;37.57;19.20;;;5.60;99.90;;;;;;4905538;29;37149;-76
2022/01/13 22:26:54;;;;;;;80.40;22.07;;;5.50;99.90;;;;;;4902905;29;37451;-76
2022/01/13 22:29:20;;;;;;;41.90;18.47;;;5.50;99.90;;;;;;4914958;29;39712;-77
2022/01/13 22:31:47;;;;;;;48.17;17.90;;;5.50;99.90;;;;;;4899757;28;37319;-78
2022/01/13 22:34:13;;;;;;;61.33;20.63;;;5.40;99.90;;;;;;4890240;29;38751;-77
2022/01/13 22:36:39;;;;;;;27.63;18.40;;;5.40;99.90;;;;;;4895363;29;36935;-77
2022/01/13 22:39:08;;;;;;;54.20;19.50;;;5.40;99.90;;;;;;4893275;29;39221;-77
2022/01/13 22:41:35;;;;;;;35.47;18.10;;;5.40;99.90;;;;;;4895212;29;38924;-77
2022/01/13 22:44:03;;;;;;;62.57;21.03;;;5.40;99.90;;;;;;4900602;29;37863;-78
2022/01/13 22:46:30;;;;;;;45.30;18.00;;;5.40;99.90;;;;;;4896063;29;47151;-77
2022/01/13 22:48:56;;;;;;;37.03;18.50;;;5.40;99.90;;;;;;4897326;29;39231;-78
2022/01/13 22:51:23;;;;;;;46.83;18.77;;;5.40;99.90;;;;;;4898316;29;38576;-78
2022/01/13 22:53:51;;;;;;;28.13;17.30;;;5.30;99.90;;;;;;4903009;29;36776;-77
2022/01/13 22:56:17;;;;;;;30.27;17.50;;;5.40;99.90;;;;;;4900949;29;38814;-77
2022/01/13 22:58:43;;;;;;;40.07;19.53;;;5.30;99.90;;;;;;4899739;29;39201;-76
2022/01/13 23:01:10;;;;;;;32.03;17.57;;;5.40;99.90;;;;;;4901744;29;37906;-77
2022/01/13 23:03:36;;;;;;;33.90;18.27;;;5.40;99.90;;;;;;4906258;29;38903;-77
2022/01/13 23:06:03;;;;;;;44.20;17.97;;;5.40;99.90;;;;;;4906889;29;37473;-77
2022/01/13 23:08:29;;;;;;;31.47;17.27;;;5.30;99.90;;;;;;4908836;29;39168;-77
2022/01/13 23:10:55;;;;;;;33.67;16.93;;;5.30;99.90;;;;;;4908305;29;39048;-77
2022/01/13 23:13:30;;;;;;;43.47;17.87;;;5.30;99.90;;;;;;4907430;29;40038;-77
2022/01/13 23:24:13;;;;;;;109.30;24.93;;;5.40;99.90;;;;;;4885042;29;40108;-77
2022/01/13 23:26:39;;;;;;;108.03;25.83;;;5.40;99.90;;;;;;4885361;29;38932;-77
2022/01/13 23:29:05;;;;;;;41.23;18.03;;;5.40;99.90;;;;;;4885699;29;38401;-77
2022/01/13 23:31:31;;;;;;;36.83;17.83;;;5.30;99.90;;;;;;4884813;29;39414;-77